createdAt,value
2022-10-17T00:00:41.337Z,68.85
2022-10-17T00:03:08.680Z,68.73
2022-10-17T00:05:40.188Z,68.75
2022-10-17T00:08:09.221Z,68.85
2022-10-17T00:10:37.612Z,69.10
2022-10-17T00:13:05.333Z,68.67
2022-10-17T00:15:33.542Z,69.25
2022-10-17T00:18:01.883Z,69.26
2022-10-17T00:20:30.596Z,68.64
2022-10-17T00:22:58.036Z,69.18
2022-10-17T00:25:26.849Z,69.38
2022-10-17T00:27:54.353Z,69.22
2022-10-17T00:30:21.604Z,68.85
2022-10-17T00:32:48.810Z,69.86
2022-10-17T00:35:16.203Z,69.49
2022-10-17T00:37:43.554Z,69.21
2022-10-17T00:40:11.451Z,69.88
2022-10-17T00:42:40.807Z,69.46
2022-10-17T00:45:14.956Z,69.11
2022-10-17T00:47:46.629Z,69.23
2022-10-17T00:50:15.211Z,69.70
2022-10-17T00:52:43.769Z,69.88
2022-10-17T00:55:14.632Z,70.46
2022-10-17T00:57:45.561Z,70.05
2022-10-17T01:00:15.726Z,70.24
2022-10-17T01:02:43.264Z,70.35
2022-10-17T01:05:11.920Z,70.55
2022-10-17T01:07:40.952Z,70.72
2022-10-17T01:10:09.328Z,70.56
2022-10-17T01:12:49.137Z,70.61
2022-10-17T01:15:26.744Z,71.13
2022-10-17T01:18:08.795Z,70.34
2022-10-17T01:20:58.785Z,70.27
2022-10-17T01:23:42.356Z,70.46
2022-10-17T01:26:19.347Z,71.59
2022-10-17T01:29:24.658Z,71.63
2022-10-17T01:32:00.279Z,71.53
2022-10-17T01:34:33.185Z,71.09
2022-10-17T01:37:05.691Z,71.69
2022-10-17T01:39:45.353Z,71.41
2022-10-17T01:42:19.995Z,71.39
2022-10-17T01:44:55.648Z,71.62
2022-10-17T01:47:29.668Z,71.67
2022-10-17T01:50:01.586Z,71.55
2022-10-17T01:52:38.836Z,72.01
2022-10-17T01:55:11.574Z,71.85
2022-10-17T01:57:45.490Z,71.55
2022-10-17T02:00:17.173Z,71.35
2022-10-17T02:02:48.966Z,71.81
2022-10-17T02:05:19.167Z,71.70
2022-10-17T02:07:46.363Z,72.29
2022-10-17T02:10:25.091Z,71.97
2022-10-17T02:13:00.607Z,71.90
2022-10-17T02:15:59.442Z,72.24
2022-10-17T02:18:46.259Z,71.77
2022-10-17T02:21:45.525Z,71.97
2022-10-17T02:24:20.858Z,72.18
2022-10-17T02:26:54.181Z,71.68
2022-10-17T02:29:26.655Z,72.71
2022-10-17T02:31:59.381Z,72.30
2022-10-17T02:34:32.217Z,72.20
2022-10-17T02:37:02.298Z,72.51
2022-10-17T02:39:31.914Z,71.98
2022-10-17T02:42:03.735Z,72.50
2022-10-17T02:44:32.467Z,72.16
2022-10-17T02:47:09.070Z,72.36
2022-10-17T02:49:41.953Z,72.38
2022-10-17T02:52:14.933Z,72.82
2022-10-17T02:54:48.097Z,72.36
2022-10-17T02:57:21.577Z,72.31
2022-10-17T02:59:50.453Z,72.55
2022-10-17T03:02:18.243Z,73.18
2022-10-17T03:04:47.558Z,72.42
2022-10-17T03:07:16.429Z,72.07
2022-10-17T03:09:44.143Z,72.76
2022-10-17T03:12:11.593Z,73.01
2022-10-17T03:14:38.877Z,73.30
2022-10-17T03:17:06.191Z,73.17
2022-10-17T03:19:33.472Z,72.38
2022-10-17T03:22:02.183Z,73.24
2022-10-17T03:24:30.931Z,72.88
2022-10-17T03:26:58.676Z,73.19
2022-10-17T03:29:25.945Z,73.16
2022-10-17T03:31:54.628Z,72.94
2022-10-17T03:34:22.307Z,73.56
2022-10-17T03:36:49.641Z,73.47
2022-10-17T03:39:19.407Z,73.40
2022-10-17T03:41:47.128Z,73.44
2022-10-17T03:44:15.321Z,73.77
2022-10-17T03:46:43.058Z,74.00
2022-10-17T03:49:10.725Z,73.72
2022-10-17T03:51:38.262Z,73.38
2022-10-17T03:54:10.153Z,73.80
2022-10-17T03:56:38.693Z,73.78
2022-10-17T03:59:13.407Z,74.51
2022-10-17T04:01:41.527Z,73.99
2022-10-17T04:04:09.468Z,74.03
2022-10-17T04:06:38.268Z,73.72
2022-10-17T04:09:06.885Z,73.96
2022-10-17T04:11:44.886Z,73.68
2022-10-17T04:14:13.156Z,73.18
2022-10-17T04:16:40.696Z,74.06
2022-10-17T04:19:14.253Z,73.79
2022-10-17T04:21:45.342Z,73.55
2022-10-17T04:24:14.452Z,73.96
2022-10-17T04:27:05.651Z,73.84
2022-10-17T04:29:36.481Z,73.92
2022-10-17T04:32:26.217Z,73.80
2022-10-17T04:35:01.691Z,73.56
2022-10-17T04:37:30.709Z,73.15
2022-10-17T04:39:59.793Z,74.18
2022-10-17T04:42:32.079Z,73.18
2022-10-17T04:44:59.787Z,74.18
2022-10-17T04:47:28.055Z,73.37
2022-10-17T04:49:56.356Z,73.71
2022-10-17T04:52:25.230Z,73.99
2022-10-17T04:54:53.421Z,73.47
2022-10-17T04:57:21.487Z,73.94
2022-10-17T05:00:03.660Z,73.90
2022-10-17T05:02:58.888Z,73.45
2022-10-17T05:05:27.148Z,73.72
2022-10-17T05:07:55.725Z,73.80
2022-10-17T05:10:26.426Z,74.21
2022-10-17T05:12:54.675Z,73.18
2022-10-17T05:15:25.929Z,73.16
2022-10-17T05:17:56.076Z,73.19
2022-10-17T05:20:24.491Z,73.06
2022-10-17T05:22:52.013Z,73.00
2022-10-17T05:25:19.609Z,72.74
2022-10-17T05:27:47.318Z,72.82
2022-10-17T05:30:15.970Z,73.14
2022-10-17T05:32:44.820Z,72.93
2022-10-17T05:35:12.159Z,72.87
2022-10-17T05:37:39.838Z,72.82
2022-10-17T05:40:08.602Z,72.14
2022-10-17T05:42:35.896Z,72.10
2022-10-17T05:45:03.771Z,72.74
2022-10-17T05:47:32.009Z,71.85
2022-10-17T05:50:00.960Z,72.32
2022-10-17T05:52:34.660Z,71.50
2022-10-17T05:55:13.435Z,71.82
2022-10-17T05:57:40.978Z,71.39
2022-10-17T06:00:14.137Z,71.95
2022-10-17T06:02:50.520Z,71.59
2022-10-17T06:05:21.521Z,71.07
2022-10-17T06:07:56.993Z,71.10
2022-10-17T06:10:27.444Z,70.68
2022-10-17T06:12:56.810Z,71.35
2022-10-17T06:15:24.394Z,71.15
2022-10-17T06:17:58.468Z,70.99
2022-10-17T06:20:27.055Z,70.53
2022-10-17T06:22:54.455Z,70.18
2022-10-17T06:25:35.176Z,70.71
2022-10-17T06:28:02.739Z,70.08
2022-10-17T06:30:30.474Z,69.95
2022-10-17T06:32:57.783Z,70.23
2022-10-17T06:35:26.561Z,70.23
2022-10-17T06:37:53.851Z,70.17
2022-10-17T06:40:21.906Z,69.88
2022-10-17T06:42:49.714Z,70.25
2022-10-17T06:45:38.839Z,70.08
2022-10-17T06:48:29.564Z,69.59
2022-10-17T06:51:30.364Z,69.23
2022-10-17T06:53:59.337Z,69.68
2022-10-17T06:56:32.097Z,69.25
2022-10-17T06:59:09.313Z,69.21
2022-10-17T07:01:40.674Z,69.25
2022-10-17T07:04:12.032Z,69.04
2022-10-17T07:06:41.092Z,69.36
2022-10-17T07:09:15.605Z,68.92
2022-10-17T07:11:42.930Z,69.16
2022-10-17T07:14:10.310Z,68.70
2022-10-17T07:16:37.772Z,68.38
2022-10-17T07:19:11.084Z,68.56
2022-10-17T07:21:41.044Z,68.60
2022-10-17T07:24:10.871Z,68.63
2022-10-17T07:26:39.752Z,67.81
2022-10-17T07:29:07.688Z,68.51
2022-10-17T07:31:39.503Z,68.27
2022-10-17T07:34:06.907Z,68.12
2022-10-17T07:36:34.295Z,68.49
2022-10-17T07:39:05.550Z,68.46
2022-10-17T07:41:33.662Z,68.04
2022-10-17T07:44:00.893Z,68.01
2022-10-17T07:46:33.844Z,67.61
2022-10-17T07:49:01.145Z,67.66
2022-10-17T07:51:29.305Z,67.68
2022-10-17T07:53:56.549Z,67.13
2022-10-17T07:56:25.259Z,67.26
2022-10-17T07:58:53.298Z,67.43
2022-10-17T08:01:20.665Z,67.28
2022-10-17T08:03:51.389Z,67.24
2022-10-17T08:06:18.954Z,67.15
2022-10-17T08:08:46.280Z,67.47
2022-10-17T08:11:15.055Z,67.39
2022-10-17T08:13:43.668Z,67.50
2022-10-17T08:16:12.799Z,67.68
2022-10-17T08:18:41.411Z,67.66
2022-10-17T08:21:08.857Z,67.36
2022-10-17T08:23:36.683Z,67.33
2022-10-17T08:26:05.477Z,67.13
2022-10-17T08:28:35.558Z,67.49
2022-10-17T08:31:06.034Z,67.24
2022-10-17T08:33:33.552Z,67.10
2022-10-17T08:36:01.555Z,66.77
2022-10-17T08:38:33.279Z,66.68
2022-10-17T08:41:05.686Z,66.90
2022-10-17T08:43:46.135Z,66.95
2022-10-17T08:48:51.750Z,67.97
2022-10-17T08:51:25.158Z,68.40
2022-10-17T08:53:58.382Z,68.89
2022-10-17T08:56:47.649Z,69.05
2022-10-17T08:59:21.870Z,69.80
2022-10-17T09:01:58.945Z,70.32
2022-10-17T09:04:50.364Z,70.62
2022-10-17T09:07:27.583Z,71.25
2022-10-17T09:10:03.414Z,71.56
2022-10-17T09:12:38.099Z,72.23
2022-10-17T09:15:40.952Z,74.26
2022-10-17T09:18:18.659Z,75.80
2022-10-17T09:20:53.470Z,76.83
2022-10-17T09:23:24.935Z,78.43
2022-10-17T09:25:54.825Z,80.08
2022-10-17T09:28:26.101Z,82.21
2022-10-17T09:30:58.425Z,83.26
2022-10-17T09:33:35.958Z,84.32
2022-10-17T09:36:19.187Z,84.96
2022-10-17T09:38:49.607Z,85.69
2022-10-17T09:41:43.494Z,86.38
2022-10-17T09:44:20.444Z,87.45
2022-10-17T09:47:09.236Z,87.90
2022-10-17T09:49:40.065Z,88.46
2022-10-17T09:52:15.411Z,88.40
2022-10-17T09:54:45.892Z,89.07
2022-10-17T09:57:15.072Z,89.23
2022-10-17T09:59:47.540Z,90.12
2022-10-17T10:02:21.312Z,89.68
2022-10-17T10:05:04.572Z,89.81
2022-10-17T10:07:35.304Z,89.91
2022-10-17T10:10:04.854Z,89.79
2022-10-17T10:12:34.058Z,90.25
2022-10-17T10:15:01.406Z,91.18
2022-10-17T10:17:36.886Z,91.31
2022-10-17T10:20:27.737Z,90.57
2022-10-17T10:23:13.522Z,90.78
2022-10-17T10:25:50.193Z,90.75
2022-10-17T10:28:18.942Z,90.88
2022-10-17T10:30:50.118Z,90.62
2022-10-17T10:33:20.300Z,90.63
2022-10-17T10:35:56.768Z,90.74
2022-10-17T10:38:24.499Z,91.47
2022-10-17T10:40:54.820Z,92.04
2022-10-17T10:43:27.181Z,91.02
2022-10-17T10:45:54.646Z,91.52
2022-10-17T10:48:23.745Z,91.19
2022-10-17T10:50:57.158Z,91.25
2022-10-17T10:53:35.203Z,91.64
2022-10-17T10:56:09.559Z,91.42
2022-10-17T10:58:51.667Z,91.94
2022-10-17T11:01:28.456Z,91.77
2022-10-17T11:04:06.769Z,91.75
2022-10-17T11:06:38.454Z,91.23
2022-10-17T11:09:32.877Z,91.43
2022-10-17T11:12:08.173Z,91.28
2022-10-17T11:14:43.350Z,91.81
2022-10-17T11:17:20.396Z,91.22
2022-10-17T11:19:53.379Z,91.43
2022-10-17T11:22:29.401Z,91.29
2022-10-17T11:25:01.021Z,91.06
2022-10-17T11:27:31.652Z,91.28
2022-10-17T11:29:59.347Z,91.42
2022-10-17T11:32:32.722Z,91.04
2022-10-17T11:35:04.196Z,91.47
2022-10-17T11:37:40.649Z,91.27
2022-10-17T11:40:19.253Z,91.42
2022-10-17T11:42:56.985Z,91.29
2022-10-17T11:45:27.296Z,91.00
2022-10-17T11:48:02.107Z,91.18
2022-10-17T11:53:24.392Z,91.64
2022-10-17T11:55:54.004Z,91.68
2022-10-17T11:58:33.200Z,91.54
2022-10-17T12:01:16.190Z,91.78
2022-10-17T12:03:57.648Z,91.24
2022-10-17T12:06:42.961Z,91.60
2022-10-17T12:09:19.178Z,91.90
2022-10-17T12:11:53.972Z,91.42
2022-10-17T12:14:41.808Z,91.65
2022-10-17T12:17:33.136Z,91.50
2022-10-17T12:20:33.031Z,91.70
2022-10-17T12:23:21.527Z,91.46
2022-10-17T12:25:52.683Z,91.61
2022-10-17T12:28:27.715Z,91.83
2022-10-17T12:30:58.467Z,91.59
2022-10-17T12:33:32.159Z,91.74
2022-10-17T12:36:46.967Z,91.72
2022-10-17T12:39:50.627Z,91.82
2022-10-17T12:42:47.684Z,91.95
2022-10-17T12:45:46.063Z,92.19
2022-10-17T12:48:13.455Z,91.88
2022-10-17T12:51:30.755Z,91.83
2022-10-17T12:53:57.412Z,92.30
2022-10-17T12:56:34.365Z,92.24
2022-10-17T12:59:08.051Z,92.30
2022-10-17T13:01:39.004Z,92.46
2022-10-17T13:04:11.166Z,92.34
2022-10-17T13:06:46.807Z,92.38
2022-10-17T13:09:24.858Z,91.92
2022-10-17T13:11:54.188Z,92.21
2022-10-17T13:14:24.762Z,91.88
2022-10-17T13:16:54.016Z,92.57
2022-10-17T13:19:24.354Z,91.73
2022-10-17T13:21:52.253Z,92.35
2022-10-17T13:24:28.236Z,92.14
2022-10-17T13:26:55.491Z,92.34
2022-10-17T13:29:25.926Z,92.41
2022-10-17T13:31:55.081Z,92.06
2022-10-17T13:34:24.600Z,92.17
2022-10-17T13:36:54.837Z,92.28
2022-10-17T13:39:38.199Z,91.91
2022-10-17T13:42:21.782Z,92.49
2022-10-17T13:44:50.727Z,91.90
2022-10-17T13:47:23.102Z,92.17
2022-10-17T13:49:55.034Z,91.92
2022-10-17T13:52:23.562Z,92.16
2022-10-17T13:54:51.957Z,91.85
2022-10-17T13:57:21.578Z,91.75
2022-10-17T13:59:53.867Z,92.03
2022-10-17T14:02:23.649Z,92.33
2022-10-17T14:05:18.302Z,91.97
2022-10-17T14:08:10.571Z,91.87
2022-10-17T14:10:40.323Z,91.78
2022-10-17T14:13:19.249Z,91.96
2022-10-17T14:15:48.315Z,91.99
2022-10-17T14:18:21.021Z,91.83
2022-10-17T14:23:40.437Z,91.74
2022-10-17T14:26:11.931Z,91.76
2022-10-17T14:28:40.683Z,91.62
2022-10-17T14:31:25.820Z,91.65
2022-10-17T14:33:54.460Z,91.82
2022-10-17T14:36:33.161Z,91.33
2022-10-17T14:39:01.871Z,91.61
2022-10-17T14:41:47.676Z,91.46
2022-10-17T14:44:20.647Z,91.79
2022-10-17T14:46:53.080Z,91.54
2022-10-17T14:49:24.961Z,91.27
2022-10-17T14:52:26.204Z,91.51
2022-10-17T14:54:53.690Z,91.61
2022-10-17T14:57:25.990Z,91.52
2022-10-17T14:59:55.189Z,91.42
2022-10-17T15:02:24.766Z,91.50
2022-10-17T15:04:52.559Z,91.57
2022-10-17T15:07:21.426Z,91.48
2022-10-17T15:09:51.837Z,91.29
2022-10-17T15:12:22.413Z,92.01
2022-10-17T15:14:50.767Z,91.56
2022-10-17T15:17:21.034Z,91.21
2022-10-17T15:19:50.892Z,91.60
2022-10-17T15:22:18.702Z,91.44
2022-10-17T15:24:46.430Z,91.44
2022-10-17T15:27:16.256Z,91.00
2022-10-17T15:29:43.847Z,91.16
2022-10-17T15:32:11.654Z,91.16
2022-10-17T15:34:39.263Z,91.25
2022-10-17T15:37:16.899Z,91.41
2022-10-17T15:39:45.400Z,91.28
2022-10-17T15:42:13.085Z,91.22
2022-10-17T15:44:44.117Z,91.33
2022-10-17T15:47:22.575Z,91.13
2022-10-17T15:49:50.112Z,91.07
2022-10-17T15:52:19.079Z,91.09
2022-10-17T15:54:46.745Z,91.31
2022-10-17T15:57:18.188Z,91.24
2022-10-17T15:59:47.078Z,91.01
2022-10-17T16:02:15.571Z,90.91
2022-10-17T16:04:43.403Z,90.79
2022-10-17T16:07:10.934Z,90.75
2022-10-17T16:09:39.646Z,90.86
2022-10-17T16:12:11.907Z,90.90
2022-10-17T16:14:39.357Z,91.00
2022-10-17T16:17:06.780Z,90.82
2022-10-17T16:19:34.348Z,90.64
2022-10-17T16:22:04.452Z,90.56
2022-10-17T16:24:32.362Z,90.59
2022-10-17T16:27:01.035Z,90.54
2022-10-17T16:29:28.272Z,90.17
2022-10-17T16:31:55.466Z,90.37
2022-10-17T16:34:22.666Z,90.35
2022-10-17T16:36:49.887Z,90.33
2022-10-17T16:39:17.102Z,90.31
2022-10-17T16:41:44.351Z,90.43
2022-10-17T16:44:14.968Z,90.17
2022-10-17T16:46:42.340Z,90.31
2022-10-17T16:49:10.252Z,90.47
2022-10-17T16:51:37.549Z,90.32
2022-10-17T16:54:04.956Z,90.31
2022-10-17T16:56:32.923Z,90.34
2022-10-17T16:59:01.195Z,90.19
2022-10-17T17:01:30.009Z,90.17
2022-10-17T17:03:57.642Z,90.06
2022-10-17T17:06:26.923Z,90.19
2022-10-17T17:08:55.055Z,90.08
2022-10-17T17:11:24.670Z,89.80
2022-10-17T17:13:52.208Z,89.60
2022-10-17T17:16:21.761Z,90.00
2022-10-17T17:18:54.696Z,89.97
2022-10-17T17:21:21.893Z,90.01
2022-10-17T17:23:49.308Z,89.94
2022-10-17T17:26:19.265Z,90.01
2022-10-17T17:28:47.109Z,89.84
2022-10-17T17:31:18.578Z,89.72
2022-10-17T17:33:46.962Z,89.94
2022-10-17T17:36:19.240Z,89.67
2022-10-17T17:38:47.598Z,89.61
2022-10-17T17:41:17.327Z,89.84
2022-10-17T17:43:46.106Z,89.48
2022-10-17T17:46:13.710Z,89.40
2022-10-17T17:48:42.428Z,89.49
2022-10-17T17:51:11.864Z,89.54
2022-10-17T17:53:40.923Z,89.74
2022-10-17T17:56:10.476Z,89.49
2022-10-17T17:58:37.884Z,89.59
2022-10-17T18:01:12.294Z,89.24
2022-10-17T18:03:41.833Z,89.52
2022-10-17T18:06:09.486Z,89.72
2022-10-17T18:08:36.875Z,90.08
2022-10-17T18:11:06.301Z,89.63
2022-10-17T18:13:33.590Z,89.57
2022-10-17T18:16:02.031Z,89.79
2022-10-17T18:18:30.615Z,89.67
2022-10-17T18:21:01.767Z,89.76
2022-10-17T18:23:29.369Z,89.71
2022-10-17T18:25:57.913Z,89.73
2022-10-17T18:28:27.066Z,89.89
2022-10-17T18:30:54.602Z,89.92
2022-10-17T18:33:22.293Z,89.51
2022-10-17T18:35:49.575Z,89.70
2022-10-17T18:38:16.805Z,89.75
2022-10-17T18:40:46.081Z,89.57
2022-10-17T18:43:15.986Z,89.94
2022-10-17T18:45:44.605Z,89.79
2022-10-17T18:48:12.050Z,90.06
2022-10-17T18:50:39.584Z,89.88
2022-10-17T18:53:06.823Z,90.21
2022-10-17T18:55:34.074Z,90.20
2022-10-17T18:58:01.325Z,90.13
2022-10-17T19:00:28.672Z,90.15
2022-10-17T19:02:57.421Z,89.99
2022-10-17T19:05:24.689Z,89.78
2022-10-17T19:07:51.861Z,90.05
2022-10-17T19:10:19.105Z,90.05
2022-10-17T19:12:46.348Z,90.22
2022-10-17T19:15:13.577Z,90.15
2022-10-17T19:17:40.892Z,90.02
2022-10-17T19:20:10.915Z,90.10
2022-10-17T19:22:38.190Z,90.10
2022-10-17T19:25:06.194Z,89.98
2022-10-17T19:27:33.550Z,90.18
2022-10-17T19:30:00.950Z,90.10
2022-10-17T19:32:28.473Z,90.44
2022-10-17T19:34:56.245Z,90.49
2022-10-17T19:37:25.081Z,90.28
2022-10-17T19:39:52.340Z,90.42
2022-10-17T19:42:19.573Z,90.51
2022-10-17T19:44:46.798Z,90.84
2022-10-17T19:47:14.060Z,90.40
2022-10-17T19:49:42.897Z,90.17
2022-10-17T19:52:11.895Z,90.43
2022-10-17T19:54:40.878Z,90.43
2022-10-17T19:57:10.387Z,90.56
2022-10-17T19:59:38.044Z,90.61
2022-10-17T20:02:05.475Z,90.63
2022-10-17T20:04:32.974Z,90.46
2022-10-17T20:07:00.339Z,90.61
2022-10-17T20:09:27.571Z,90.66
2022-10-17T20:11:56.277Z,90.75
2022-10-17T20:14:23.591Z,90.61
2022-10-17T20:16:52.644Z,90.61
2022-10-17T20:19:20.699Z,90.79
2022-10-17T20:21:48.037Z,90.73
2022-10-17T20:24:16.676Z,90.89
2022-10-17T20:26:44.760Z,90.65
2022-10-17T20:29:15.623Z,90.74
2022-10-17T20:31:44.453Z,90.74
2022-10-17T20:34:13.977Z,90.75
2022-10-17T20:36:41.756Z,90.71
2022-10-17T20:39:10.864Z,90.74
2022-10-17T20:41:38.193Z,90.81
2022-10-17T20:44:07.055Z,90.74
2022-10-17T20:46:37.850Z,90.90
2022-10-17T20:49:08.534Z,90.93
2022-10-17T20:51:36.426Z,90.96
2022-10-17T20:54:04.321Z,90.87
2022-10-17T20:56:33.223Z,91.09
2022-10-17T20:59:01.884Z,90.91
2022-10-17T21:01:30.376Z,90.99
2022-10-17T21:04:10.535Z,91.06
2022-10-17T21:06:43.052Z,90.91
2022-10-17T21:09:10.525Z,90.92
2022-10-17T21:11:37.806Z,90.69
2022-10-17T21:14:06.795Z,90.95
2022-10-17T21:16:36.677Z,91.08
2022-10-17T21:19:06.268Z,91.01
2022-10-17T21:21:35.579Z,90.98
2022-10-17T21:24:05.066Z,91.03
2022-10-17T21:26:33.541Z,91.13
2022-10-17T21:29:05.558Z,91.10
2022-10-17T21:31:34.499Z,91.22
2022-10-17T21:34:07.260Z,91.13
2022-10-17T21:36:34.840Z,91.30
2022-10-17T21:39:02.152Z,91.23
2022-10-17T21:41:30.066Z,91.38
2022-10-17T21:43:58.626Z,91.45
2022-10-17T21:46:26.383Z,91.43
2022-10-17T21:48:54.462Z,91.07
2022-10-17T21:51:24.480Z,91.28
2022-10-17T21:53:53.110Z,91.21
2022-10-17T21:56:22.853Z,91.29
2022-10-17T21:58:51.785Z,91.28
2022-10-17T22:01:21.241Z,91.34
2022-10-17T22:03:50.266Z,91.31
2022-10-17T22:09:10.496Z,91.12
2022-10-17T22:11:37.957Z,91.39
2022-10-17T22:14:07.366Z,90.98
2022-10-17T22:16:35.436Z,90.90
2022-10-17T22:19:06.294Z,90.89
2022-10-17T22:21:35.247Z,91.06
2022-10-17T22:24:06.872Z,91.00
2022-10-17T22:26:37.731Z,91.04
2022-10-17T22:29:05.892Z,91.31
2022-10-17T22:31:33.520Z,91.19
2022-10-17T22:34:01.339Z,91.12
2022-10-17T22:36:28.675Z,91.26
2022-10-17T22:38:56.051Z,91.01
2022-10-17T22:41:23.225Z,91.18
2022-10-17T22:43:51.795Z,91.11
2022-10-17T22:46:19.018Z,91.21
2022-10-17T22:48:46.439Z,91.14
2022-10-17T22:51:14.051Z,91.11
2022-10-17T22:53:41.579Z,91.22
2022-10-17T22:56:12.342Z,91.06
2022-10-17T22:58:40.142Z,91.05
2022-10-17T23:01:12.969Z,91.17
2022-10-17T23:03:41.357Z,91.12
2022-10-17T23:06:08.776Z,90.94
2022-10-17T23:08:36.372Z,90.82
2022-10-17T23:11:03.652Z,90.93
2022-10-17T23:13:31.079Z,91.08
2022-10-17T23:15:58.501Z,90.96
2022-10-17T23:18:27.705Z,91.09
2022-10-17T23:20:55.420Z,90.78
2022-10-17T23:23:22.885Z,90.94
2022-10-17T23:25:51.603Z,90.83
2022-10-17T23:28:18.950Z,90.83
2022-10-17T23:30:46.218Z,90.77
2022-10-17T23:33:14.284Z,90.61
2022-10-17T23:35:42.997Z,90.72
2022-10-17T23:38:10.495Z,90.70
2022-10-17T23:40:37.996Z,90.66
2022-10-17T23:43:05.740Z,90.79
2022-10-17T23:45:35.980Z,90.63
2022-10-17T23:48:04.983Z,90.68
2022-10-17T23:50:32.221Z,90.63
2022-10-17T23:53:00.859Z,90.69
2022-10-17T23:55:28.176Z,90.64
2022-10-17T23:57:55.373Z,90.60
